createdAt,value
2023-04-03T00:00:17.069Z,64.25
2023-04-03T00:02:45.568Z,64.36
2023-04-03T00:05:12.145Z,64.67
2023-04-03T00:07:38.649Z,64.15
2023-04-03T00:10:05.562Z,64.24
2023-04-03T00:12:32.029Z,64.05
2023-04-03T00:14:58.554Z,63.61
2023-04-03T00:17:25.099Z,63.38
2023-04-03T00:19:51.727Z,63.27
2023-04-03T00:22:18.189Z,62.91
2023-04-03T00:24:44.678Z,62.49
2023-04-03T00:27:11.149Z,62.39
2023-04-03T00:29:37.615Z,61.55
2023-04-03T00:32:04.164Z,61.52
2023-04-03T00:34:30.649Z,61.00
2023-04-03T00:36:58.054Z,61.32
2023-04-03T00:39:24.561Z,61.95
2023-04-03T00:41:51.061Z,60.83
2023-04-03T00:44:29.366Z,61.44
2023-04-03T00:46:55.856Z,61.41
2023-04-03T00:49:22.497Z,61.09
2023-04-03T00:51:49.593Z,61.64
2023-04-03T00:54:16.191Z,62.01
2023-04-03T00:56:44.368Z,61.98
2023-04-03T00:59:21.269Z,61.96
2023-04-03T01:01:47.917Z,62.53
2023-04-03T01:04:39.966Z,64.28
2023-04-03T01:07:14.958Z,65.66
2023-04-03T01:09:42.021Z,70.55
2023-04-03T01:12:21.850Z,72.27
2023-04-03T01:14:52.478Z,70.18
2023-04-03T01:17:40.747Z,68.39
2023-04-03T01:20:30.244Z,66.82
2023-04-03T01:23:12.070Z,66.00
2023-04-03T01:25:43.056Z,66.20
2023-04-03T01:28:14.271Z,65.80
2023-04-03T01:30:47.208Z,65.06
2023-04-03T01:33:16.238Z,64.54
2023-04-03T01:35:42.703Z,64.70
2023-04-03T01:38:09.265Z,64.49
2023-04-03T01:40:35.970Z,65.06
2023-04-03T01:43:02.645Z,65.54
2023-04-03T01:45:29.196Z,65.89
2023-04-03T01:47:55.768Z,68.93
2023-04-03T01:50:22.222Z,70.13
2023-04-03T01:52:48.762Z,73.52
2023-04-03T01:55:15.468Z,75.97
2023-04-03T01:57:42.006Z,79.75
2023-04-03T02:00:09.100Z,80.13
2023-04-03T02:02:35.669Z,79.95
2023-04-03T02:05:02.248Z,79.58
2023-04-03T02:07:28.756Z,77.32
2023-04-03T02:09:55.209Z,75.67
2023-04-03T02:12:21.685Z,76.19
2023-04-03T02:14:48.143Z,74.55
2023-04-03T02:17:14.601Z,75.30
2023-04-03T02:19:41.215Z,74.49
2023-04-03T02:22:07.933Z,73.62
2023-04-03T02:24:34.443Z,72.22
2023-04-03T02:27:01.028Z,71.82
2023-04-03T02:29:27.548Z,71.64
2023-04-03T02:31:54.052Z,72.01
2023-04-03T02:34:20.542Z,70.20
2023-04-03T02:36:47.035Z,71.14
2023-04-03T02:39:13.568Z,69.72
2023-04-03T02:41:40.116Z,68.79
2023-04-03T02:44:07.910Z,70.63
2023-04-03T02:46:34.477Z,68.86
2023-04-03T02:49:00.983Z,68.55
2023-04-03T02:51:27.496Z,68.63
2023-04-03T02:53:54.002Z,71.26
2023-04-03T02:56:20.766Z,76.57
2023-04-03T02:58:47.404Z,74.90
2023-04-03T03:01:17.018Z,74.96
2023-04-03T03:03:43.523Z,74.26
2023-04-03T03:06:13.033Z,78.60
2023-04-03T03:08:39.877Z,80.43
2023-04-03T03:11:06.736Z,82.32
2023-04-03T03:13:33.863Z,82.54
2023-04-03T03:16:01.145Z,80.31
2023-04-03T03:18:27.694Z,77.43
2023-04-03T03:20:56.342Z,76.79
2023-04-03T03:23:25.264Z,76.30
2023-04-03T03:26:00.905Z,76.10
2023-04-03T03:28:27.577Z,74.75
2023-04-03T03:30:54.109Z,75.08
2023-04-03T03:33:20.629Z,77.15
2023-04-03T03:35:47.365Z,76.04
2023-04-03T03:38:13.855Z,75.55
2023-04-03T03:40:40.515Z,76.67
2023-04-03T03:43:07.071Z,75.63
2023-04-03T03:45:33.556Z,75.60
2023-04-03T03:48:00.400Z,73.80
2023-04-03T03:50:26.962Z,73.82
2023-04-03T03:52:53.558Z,74.18
2023-04-03T03:55:20.224Z,74.03
2023-04-03T03:57:46.740Z,73.39
2023-04-03T04:00:14.118Z,72.73
2023-04-03T04:02:40.690Z,71.87
2023-04-03T04:05:07.648Z,74.68
2023-04-03T04:07:34.105Z,73.78
2023-04-03T04:10:00.609Z,72.97
2023-04-03T04:12:27.105Z,71.75
2023-04-03T04:14:53.569Z,72.56
2023-04-03T04:17:20.203Z,72.47
2023-04-03T04:19:46.701Z,73.55
2023-04-03T04:22:13.182Z,74.08
2023-04-03T04:24:39.987Z,74.21
2023-04-03T04:27:15.548Z,77.32
2023-04-03T04:29:42.054Z,75.53
2023-04-03T04:32:08.553Z,75.98
2023-04-03T04:34:35.436Z,77.44
2023-04-03T04:37:02.047Z,76.73
2023-04-03T04:39:28.628Z,74.81
2023-04-03T04:41:55.132Z,74.90
2023-04-03T04:44:21.854Z,76.31
2023-04-03T04:46:48.362Z,75.79
2023-04-03T04:49:14.849Z,76.02
2023-04-03T04:51:51.616Z,74.26
2023-04-03T04:54:19.386Z,74.70
2023-04-03T04:56:45.899Z,74.74
2023-04-03T04:59:12.743Z,74.35
2023-04-03T05:01:39.924Z,75.66
2023-04-03T05:04:06.477Z,77.32
2023-04-03T05:06:33.151Z,75.53
2023-04-03T05:08:59.938Z,74.63
2023-04-03T05:11:26.423Z,73.94
2023-04-03T05:13:52.904Z,75.07
2023-04-03T05:16:19.461Z,76.22
2023-04-03T05:18:46.013Z,75.10
2023-04-03T05:21:12.517Z,77.43
2023-04-03T05:23:39.063Z,76.36
2023-04-03T05:26:17.125Z,75.94
2023-04-03T05:28:43.597Z,75.11
2023-04-03T05:31:10.183Z,74.28
2023-04-03T05:33:36.720Z,73.80
2023-04-03T05:36:06.843Z,72.82
2023-04-03T05:38:33.530Z,73.40
2023-04-03T05:41:00.110Z,74.42
2023-04-03T05:43:26.592Z,75.17
2023-04-03T05:45:53.345Z,75.90
2023-04-03T05:48:19.867Z,77.60
2023-04-03T05:50:47.226Z,78.03
2023-04-03T05:53:22.096Z,76.81
2023-04-03T05:55:48.612Z,75.83
2023-04-03T06:00:29.332Z,76.54
2023-04-03T06:02:56.096Z,77.45
2023-04-03T06:05:22.644Z,75.75
2023-04-03T06:07:49.124Z,74.84
2023-04-03T06:10:15.588Z,74.48
2023-04-03T06:12:42.056Z,73.22
2023-04-03T06:15:08.987Z,74.25
2023-04-03T06:17:35.535Z,75.00
2023-04-03T06:20:02.131Z,74.87
2023-04-03T06:22:28.809Z,72.46
2023-04-03T06:24:55.304Z,71.67
2023-04-03T06:27:21.906Z,72.11
2023-04-03T06:29:48.437Z,72.73
2023-04-03T06:32:15.664Z,74.21
2023-04-03T06:34:42.465Z,76.40
2023-04-03T06:37:17.544Z,76.78
2023-04-03T06:39:44.374Z,77.68
2023-04-03T06:42:10.898Z,77.25
2023-04-03T06:44:38.065Z,76.79
2023-04-03T06:47:04.713Z,76.83
2023-04-03T06:49:31.443Z,75.10
2023-04-03T06:51:59.292Z,75.70
2023-04-03T06:54:27.384Z,76.10
2023-04-03T06:56:54.050Z,75.70
2023-04-03T06:59:20.543Z,78.37
2023-04-03T07:01:47.032Z,77.73
2023-04-03T07:04:13.677Z,80.73
2023-04-03T07:06:40.150Z,81.59
2023-04-03T07:09:06.732Z,79.40
2023-04-03T07:11:33.239Z,78.40
2023-04-03T07:13:59.755Z,78.70
2023-04-03T07:16:26.391Z,79.18
2023-04-03T07:18:53.033Z,76.22
2023-04-03T07:21:19.690Z,75.43
2023-04-03T07:23:46.280Z,76.51
2023-04-03T07:26:12.755Z,79.34
2023-04-03T07:28:39.280Z,79.20
2023-04-03T07:31:07.881Z,76.75
2023-04-03T07:33:35.961Z,76.85
2023-04-03T07:36:02.910Z,76.50
2023-04-03T07:38:29.440Z,79.17
2023-04-03T07:40:55.942Z,78.88
2023-04-03T07:43:23.149Z,78.50
2023-04-03T07:45:50.376Z,80.84
2023-04-03T07:48:21.603Z,83.21
2023-04-03T07:50:48.131Z,81.99
2023-04-03T07:53:15.411Z,84.06
2023-04-03T07:55:42.336Z,83.60
2023-04-03T07:58:13.153Z,82.48
2023-04-03T08:00:40.380Z,80.38
2023-04-03T08:03:11.257Z,79.46
2023-04-03T08:05:43.631Z,79.21
2023-04-03T08:08:12.760Z,78.58
2023-04-03T08:10:40.414Z,76.06
2023-04-03T08:13:09.232Z,76.28
2023-04-03T08:15:36.398Z,77.59
2023-04-03T08:18:03.765Z,76.69
2023-04-03T08:20:30.294Z,77.11
2023-04-03T08:22:57.013Z,76.66
2023-04-03T08:25:23.984Z,75.29
2023-04-03T08:27:50.611Z,74.37
2023-04-03T08:30:17.203Z,73.11
2023-04-03T08:32:43.735Z,72.08
2023-04-03T08:35:10.627Z,73.20
2023-04-03T08:37:38.608Z,73.74
2023-04-03T08:40:08.282Z,74.09
2023-04-03T08:43:01.534Z,74.64
2023-04-03T08:45:53.061Z,75.10
2023-04-03T08:48:27.821Z,73.38
2023-04-03T08:51:03.206Z,73.06
2023-04-03T08:53:36.050Z,71.78
2023-04-03T08:56:11.082Z,74.08
2023-04-03T08:58:51.366Z,75.62
2023-04-03T09:01:17.809Z,73.37
2023-04-03T09:03:44.436Z,71.93
2023-04-03T09:06:20.780Z,71.92
2023-04-03T09:09:07.255Z,73.63
2023-04-03T09:11:59.529Z,73.72
2023-04-03T09:14:38.038Z,71.87
2023-04-03T09:17:17.286Z,70.49
2023-04-03T09:19:54.080Z,69.46
2023-04-03T09:22:36.453Z,70.98
2023-04-03T09:25:16.351Z,74.36
2023-04-03T09:27:43.582Z,74.12
2023-04-03T09:30:22.496Z,74.30
2023-04-03T09:32:52.550Z,72.09
2023-04-03T09:35:44.818Z,72.95
2023-04-03T09:38:14.366Z,70.04
2023-04-03T09:40:43.784Z,70.84
2023-04-03T09:43:32.548Z,73.05
2023-04-03T09:46:19.307Z,73.76
2023-04-03T09:49:08.301Z,71.83
2023-04-03T09:51:37.901Z,73.46
2023-04-03T09:54:32.151Z,70.77
2023-04-03T09:57:07.008Z,70.80
2023-04-03T09:59:34.343Z,68.64
2023-04-03T10:02:20.246Z,70.21
2023-04-03T10:04:48.936Z,67.88
2023-04-03T10:07:54.493Z,68.45
2023-04-03T10:10:24.748Z,67.97
2023-04-03T10:13:20.991Z,66.14
2023-04-03T10:16:00.118Z,65.69
2023-04-03T10:18:50.453Z,63.00
2023-04-03T10:21:29.249Z,63.54
2023-04-03T10:24:35.750Z,63.33
2023-04-03T10:27:24.008Z,62.81
2023-04-03T10:30:04.710Z,64.87
2023-04-03T10:32:46.209Z,62.99
2023-04-03T10:35:22.653Z,61.74
2023-04-03T10:37:57.902Z,61.21
2023-04-03T10:40:33.868Z,60.41
2023-04-03T10:43:40.575Z,60.12
2023-04-03T10:46:25.819Z,60.27
2023-04-03T10:49:29.338Z,58.28
2023-04-03T10:52:10.586Z,57.77
2023-04-03T10:54:48.754Z,57.92
2023-04-03T10:57:15.575Z,58.91
2023-04-03T10:59:54.308Z,60.43
2023-04-03T11:02:37.571Z,61.17
2023-04-03T11:05:18.911Z,59.51
2023-04-03T11:07:52.288Z,60.54
2023-04-03T11:10:25.287Z,59.55
2023-04-03T11:13:07.574Z,61.14
2023-04-03T11:15:34.240Z,58.98
2023-04-03T11:18:12.050Z,56.34
2023-04-03T11:20:47.891Z,58.14
2023-04-03T11:23:28.369Z,59.41
2023-04-03T11:26:14.251Z,56.13
2023-04-03T11:28:42.135Z,57.19
2023-04-03T11:31:34.357Z,57.87
2023-04-03T11:34:32.312Z,56.99
2023-04-03T11:37:02.185Z,58.11
2023-04-03T11:39:38.415Z,56.18
2023-04-03T11:42:32.164Z,58.09
2023-04-03T11:45:23.804Z,56.89
2023-04-03T11:47:59.665Z,56.74
2023-04-03T11:50:39.749Z,55.91
2023-04-03T11:53:09.207Z,55.23
2023-04-03T11:55:35.856Z,56.01
2023-04-03T11:58:04.753Z,56.40
2023-04-03T12:00:46.257Z,54.28
2023-04-03T12:03:25.164Z,53.17
2023-04-03T12:05:52.466Z,53.08
2023-04-03T12:08:30.909Z,53.29
2023-04-03T12:11:09.245Z,52.22
2023-04-03T12:13:39.668Z,51.47
2023-04-03T12:16:08.526Z,52.63
2023-04-03T12:18:38.018Z,51.86
2023-04-03T12:21:07.198Z,50.99
2023-04-03T12:23:56.520Z,51.03
2023-04-03T12:26:35.382Z,51.18
2023-04-03T12:29:21.440Z,51.88
2023-04-03T12:32:14.487Z,51.76
2023-04-03T12:34:53.001Z,52.00
2023-04-03T12:37:49.086Z,50.57
2023-04-03T12:40:44.649Z,49.98
2023-04-03T12:43:41.086Z,52.00
2023-04-03T12:46:07.576Z,52.02
2023-04-03T12:48:54.144Z,51.34
2023-04-03T12:51:30.926Z,50.58
2023-04-03T12:54:13.438Z,49.44
2023-04-03T12:56:40.273Z,49.09
2023-04-03T12:59:32.748Z,49.74
2023-04-03T13:02:03.090Z,50.03
2023-04-03T13:04:32.586Z,49.67
2023-04-03T13:07:00.597Z,49.67
2023-04-03T13:09:32.318Z,50.23
2023-04-03T13:12:14.157Z,49.32
2023-04-03T13:14:41.477Z,50.14
2023-04-03T13:17:15.376Z,49.93
2023-04-03T13:19:42.821Z,49.20
2023-04-03T13:22:28.236Z,48.90
2023-04-03T13:25:02.012Z,48.00
2023-04-03T13:27:32.933Z,47.05
2023-04-03T13:30:02.908Z,45.67
2023-04-03T13:32:32.333Z,45.02
2023-04-03T13:35:08.164Z,44.02
2023-04-03T13:37:38.498Z,43.82
2023-04-03T13:40:13.431Z,42.14
2023-04-03T13:42:42.392Z,41.56
2023-04-03T13:45:26.458Z,42.80
2023-04-03T13:48:20.232Z,42.98
2023-04-03T13:51:01.647Z,44.32
2023-04-03T13:53:31.547Z,44.60
2023-04-03T13:56:09.164Z,43.76
2023-04-03T13:58:37.361Z,43.08
2023-04-03T14:01:20.397Z,42.05
2023-04-03T14:04:00.056Z,41.70
2023-04-03T14:06:26.612Z,40.79
2023-04-03T14:08:53.487Z,39.76
2023-04-03T14:11:29.512Z,39.10
2023-04-03T14:14:02.251Z,39.33
2023-04-03T14:16:35.482Z,39.60
2023-04-03T14:19:01.987Z,39.04
2023-04-03T14:21:28.461Z,39.43
2023-04-03T14:23:55.464Z,40.12
2023-04-03T14:26:24.993Z,38.74
2023-04-03T14:28:55.011Z,39.79
2023-04-03T14:31:22.587Z,38.42
2023-04-03T14:33:49.509Z,37.21
2023-04-03T14:36:30.867Z,38.55
2023-04-03T14:39:00.807Z,37.26
2023-04-03T14:41:28.186Z,36.40
2023-04-03T14:43:54.653Z,36.06
2023-04-03T14:46:48.262Z,36.46
2023-04-03T14:49:28.049Z,36.20
2023-04-03T14:51:54.697Z,36.22
2023-04-03T14:54:23.360Z,36.07
2023-04-03T14:56:49.857Z,36.56
2023-04-03T14:59:16.331Z,36.02
2023-04-03T15:01:43.874Z,35.75
2023-04-03T15:04:16.692Z,35.48
2023-04-03T15:06:44.555Z,35.80
2023-04-03T15:09:25.791Z,35.71
2023-04-03T15:11:54.524Z,35.82
2023-04-03T15:14:35.280Z,36.40
2023-04-03T15:17:06.046Z,35.54
2023-04-03T15:19:39.612Z,35.66
2023-04-03T15:22:06.901Z,35.49
2023-04-03T15:24:33.580Z,35.17
2023-04-03T15:27:02.247Z,34.42
2023-04-03T15:29:28.817Z,34.52
2023-04-03T15:31:55.455Z,34.23
2023-04-03T15:34:21.992Z,33.15
2023-04-03T15:36:48.490Z,33.65
2023-04-03T15:39:15.017Z,33.41
2023-04-03T15:41:41.511Z,32.35
2023-04-03T15:44:07.997Z,32.69
2023-04-03T15:46:34.549Z,33.47
2023-04-03T15:49:02.238Z,33.23
2023-04-03T15:51:28.700Z,32.49
2023-04-03T15:53:55.203Z,33.49
2023-04-03T15:56:21.787Z,34.06
2023-04-03T15:58:48.315Z,34.45
2023-04-03T16:01:15.499Z,34.23
2023-04-03T16:03:44.539Z,34.14
2023-04-03T16:06:12.416Z,35.70
2023-04-03T16:08:39.207Z,35.69
2023-04-03T16:11:05.701Z,34.65
2023-04-03T16:13:32.209Z,34.96
2023-04-03T16:15:58.773Z,34.50
2023-04-03T16:18:25.337Z,34.99
2023-04-03T16:20:51.937Z,36.21
2023-04-03T16:25:50.496Z,35.69
2023-04-03T16:28:18.557Z,34.13
2023-04-03T16:30:47.984Z,34.56
2023-04-03T16:33:14.809Z,34.36
2023-04-03T16:35:41.520Z,35.25
2023-04-03T16:38:08.239Z,35.19
2023-04-03T16:40:35.142Z,35.60
2023-04-03T16:43:02.934Z,34.64
2023-04-03T16:45:29.567Z,34.98
2023-04-03T16:47:56.037Z,34.91
2023-04-03T16:50:22.757Z,35.28
2023-04-03T16:52:49.895Z,33.96
2023-04-03T16:55:16.528Z,33.77
2023-04-03T16:57:43.093Z,34.78
2023-04-03T17:00:10.433Z,34.49
2023-04-03T17:02:37.930Z,33.63
2023-04-03T17:05:04.835Z,34.48
2023-04-03T17:07:31.593Z,33.97
2023-04-03T17:09:58.254Z,34.28
2023-04-03T17:12:25.181Z,34.13
2023-04-03T17:14:51.819Z,35.19
2023-04-03T17:17:24.393Z,35.94
2023-04-03T17:19:51.037Z,35.86
2023-04-03T17:22:17.616Z,35.18
2023-04-03T17:24:44.630Z,35.69
2023-04-03T17:27:11.114Z,36.17
2023-04-03T17:29:37.706Z,36.25
2023-04-03T17:32:04.534Z,36.64
2023-04-03T17:34:31.071Z,36.81
2023-04-03T17:36:57.604Z,37.96
2023-04-03T17:39:24.135Z,39.18
2023-04-03T17:41:50.790Z,39.90
2023-04-03T17:44:17.251Z,40.53
2023-04-03T17:46:43.791Z,41.03
2023-04-03T17:49:10.394Z,41.13
2023-04-03T17:51:36.867Z,42.04
2023-04-03T17:54:03.426Z,42.12
2023-04-03T17:56:29.918Z,41.56
2023-04-03T17:58:57.163Z,42.05
2023-04-03T18:01:29.597Z,44.08
2023-04-03T18:03:59.299Z,45.77
2023-04-03T18:06:33.249Z,45.60
2023-04-03T18:09:09.701Z,46.25
2023-04-03T18:11:36.211Z,47.58
2023-04-03T18:14:06.579Z,48.72
2023-04-03T18:16:34.399Z,50.02
2023-04-03T18:19:12.115Z,50.37
2023-04-03T18:21:47.589Z,51.29
2023-04-03T18:24:17.383Z,51.46
2023-04-03T18:26:48.077Z,52.37
2023-04-03T18:29:15.093Z,53.12
2023-04-03T18:31:47.751Z,53.65
2023-04-03T18:34:14.282Z,54.29
2023-04-03T18:36:40.887Z,54.44
2023-04-03T18:39:07.846Z,54.87
2023-04-03T18:41:38.370Z,55.69
2023-04-03T18:44:10.233Z,55.24
2023-04-03T18:49:10.939Z,54.48
2023-04-03T18:51:37.600Z,54.68
2023-04-03T18:54:05.227Z,54.53
2023-04-03T18:56:32.180Z,55.25
2023-04-03T18:58:58.709Z,56.25
2023-04-03T19:01:25.567Z,55.82
2023-04-03T19:03:52.453Z,56.76
2023-04-03T19:06:19.257Z,56.08
2023-04-03T19:08:46.574Z,56.40
2023-04-03T19:11:13.127Z,56.01
2023-04-03T19:13:47.143Z,55.91
2023-04-03T19:16:26.090Z,55.05
2023-04-03T19:18:52.637Z,55.17
2023-04-03T19:21:19.144Z,54.13
2023-04-03T19:23:45.639Z,53.90
2023-04-03T19:26:13.254Z,53.10
2023-04-03T19:28:40.475Z,53.66
2023-04-03T19:31:16.728Z,53.50
2023-04-03T19:33:44.135Z,54.42
2023-04-03T19:36:11.952Z,54.14
2023-04-03T19:38:38.627Z,53.63
2023-04-03T19:41:09.499Z,53.58
2023-04-03T19:43:36.020Z,53.29
2023-04-03T19:46:03.034Z,54.14
2023-04-03T19:48:29.525Z,54.21
2023-04-03T19:50:56.059Z,55.14
2023-04-03T19:53:22.584Z,55.65
2023-04-03T19:55:49.140Z,56.05
2023-04-03T19:58:15.882Z,56.54
2023-04-03T20:00:42.448Z,56.73
2023-04-03T20:03:09.190Z,57.03
2023-04-03T20:05:35.775Z,57.55
2023-04-03T20:08:02.252Z,57.17
2023-04-03T20:10:28.720Z,57.71
2023-04-03T20:12:55.206Z,57.00
2023-04-03T20:15:21.732Z,57.85
2023-04-03T20:17:48.325Z,57.19
2023-04-03T20:20:15.464Z,56.36
2023-04-03T20:22:42.296Z,56.42
2023-04-03T20:25:12.249Z,55.54
2023-04-03T20:27:38.895Z,56.22
2023-04-03T20:30:07.600Z,56.59
2023-04-03T20:32:34.768Z,56.04
2023-04-03T20:35:04.193Z,55.30
2023-04-03T20:37:31.577Z,56.32
2023-04-03T20:39:58.098Z,56.33
2023-04-03T20:42:24.597Z,55.72
2023-04-03T20:44:51.041Z,56.33
2023-04-03T20:47:17.630Z,55.67
2023-04-03T20:49:44.151Z,55.53
2023-04-03T20:52:10.630Z,55.69
2023-04-03T20:54:37.127Z,56.42
2023-04-03T20:57:03.711Z,56.55
2023-04-03T20:59:30.334Z,55.38
2023-04-03T21:01:56.888Z,55.16
2023-04-03T21:04:51.153Z,55.51
2023-04-03T21:07:55.224Z,55.74
2023-04-03T21:10:59.232Z,56.86
2023-04-03T21:14:03.018Z,56.23
2023-04-03T21:16:29.464Z,57.71
2023-04-03T21:19:15.239Z,57.62
2023-04-03T21:21:42.963Z,56.67
2023-04-03T21:24:10.315Z,56.82
2023-04-03T21:26:38.652Z,57.12
2023-04-03T21:29:08.770Z,56.62
2023-04-03T21:31:51.730Z,56.99
2023-04-03T21:34:19.873Z,57.92
2023-04-03T21:36:46.707Z,57.17
2023-04-03T21:39:13.198Z,55.76
2023-04-03T21:41:39.723Z,56.63
2023-04-03T21:44:06.221Z,55.97
2023-04-03T21:46:32.886Z,56.43
2023-04-03T21:48:59.372Z,57.05
2023-04-03T21:51:25.832Z,56.43
2023-04-03T21:53:53.520Z,56.22
2023-04-03T21:56:20.798Z,56.26
2023-04-03T21:58:47.396Z,57.23
2023-04-03T22:01:15.420Z,57.22
2023-04-03T22:03:43.378Z,56.72
2023-04-03T22:06:11.650Z,57.59
2023-04-03T22:08:38.624Z,56.98
2023-04-03T22:11:10.672Z,57.75
2023-04-03T22:13:37.583Z,57.98
2023-04-03T22:16:04.656Z,58.21
2023-04-03T22:18:32.132Z,57.98
2023-04-03T22:20:58.766Z,58.25
2023-04-03T22:23:25.292Z,58.81
2023-04-03T22:26:02.009Z,58.08
2023-04-03T22:28:30.242Z,60.10
2023-04-03T22:30:56.714Z,59.79
2023-04-03T22:33:23.298Z,59.45
2023-04-03T22:35:50.132Z,59.25
2023-04-03T22:38:17.016Z,59.03
2023-04-03T22:40:44.275Z,59.06
2023-04-03T22:43:11.302Z,59.26
2023-04-03T22:45:47.549Z,58.83
2023-04-03T22:48:14.087Z,59.18
2023-04-03T22:50:40.837Z,57.91
2023-04-03T22:53:07.436Z,58.91
2023-04-03T22:55:33.891Z,58.59
2023-04-03T22:58:00.378Z,58.34
2023-04-03T23:00:27.024Z,58.58
2023-04-03T23:02:58.315Z,59.13
2023-04-03T23:05:25.026Z,59.87
2023-04-03T23:07:52.132Z,60.26
2023-04-03T23:10:18.574Z,60.23
2023-04-03T23:12:45.030Z,60.40
2023-04-03T23:15:11.605Z,59.79
2023-04-03T23:17:38.313Z,60.52
2023-04-03T23:20:05.490Z,60.12
2023-04-03T23:22:32.001Z,59.68
2023-04-03T23:24:58.500Z,58.99
2023-04-03T23:27:24.991Z,59.32
2023-04-03T23:29:51.473Z,60.22
2023-04-03T23:32:17.973Z,60.50
2023-04-03T23:34:44.464Z,60.16
2023-04-03T23:37:14.022Z,59.78
2023-04-03T23:39:40.495Z,59.51
2023-04-03T23:42:07.021Z,59.30
2023-04-03T23:44:33.501Z,59.27
2023-04-03T23:46:59.932Z,59.93
2023-04-03T23:49:26.483Z,59.17
2023-04-03T23:51:52.963Z,58.73
2023-04-03T23:54:19.566Z,58.48
2023-04-03T23:56:46.006Z,57.53
2023-04-03T23:59:12.528Z,57.39
